Time;durP1;ratioP1;P1;durP2;ratioP2;P2;SDS_P1;SDS_P2;PMS_P1;PMS_P2;Temp;Humidity;BMP_temperature;BMP_pressure;BME280_temperature;BME280_humidity;BME280_pressure;Samples;Min_cycle;Max_cycle;Signal;HPM_P1;HPM_P2
2022/01/18 00:01:09;;;;;;;15.90;5.00;;;4.70;95.40;;;;;;5020169;28;20046;-65
2022/01/18 00:03:34;;;;;;;21.92;6.57;;;4.60;95.30;;;;;;5027479;28;20037;-66
2022/01/18 00:06:00;;;;;;;21.10;5.47;;;4.60;95.40;;;;;;5014179;28;20034;-66
2022/01/18 00:08:25;;;;;;;18.95;5.15;;;4.60;95.40;;;;;;5023907;28;20061;-67
2022/01/18 00:10:51;;;;;;;17.20;6.65;;;4.60;95.40;;;;;;5014123;28;20406;-65
2022/01/18 00:18:30;;;;;;;17.05;4.13;;;4.60;95.60;;;;;;5023819;28;20037;-66
2022/01/18 00:23:35;;;;;;;21.00;5.47;;;4.60;95.40;;;;;;5015651;28;20029;-66
2022/01/18 00:26:01;;;;;;;18.15;5.18;;;4.60;95.40;;;;;;5012449;28;20519;-67
2022/01/18 00:28:28;;;;;;;23.85;5.10;;;4.60;95.40;;;;;;5030331;28;20041;-67
2022/01/18 00:31:29;;;;;;;18.48;5.43;;;4.60;95.40;;;;;;5030156;28;20075;-67
2022/01/18 00:33:57;;;;;;;18.42;4.28;;;4.60;95.40;;;;;;5033289;28;20033;-67
2022/01/18 00:36:27;;;;;;;17.10;4.63;;;4.50;95.40;;;;;;5030064;28;20120;-67
2022/01/18 00:38:54;;;;;;;21.33;5.30;;;4.50;95.50;;;;;;5033208;28;20029;-67
2022/01/18 00:41:23;;;;;;;15.32;5.20;;;4.40;95.50;;;;;;5029409;28;20030;-67
2022/01/18 00:43:49;;;;;;;23.52;5.82;;;4.40;95.50;;;;;;5013445;28;20080;-66
2022/01/18 00:46:15;;;;;;;22.85;5.05;;;4.40;95.60;;;;;;5014188;28;20042;-67
2022/01/18 00:48:42;;;;;;;16.27;5.63;;;4.40;95.60;;;;;;5013764;28;20072;-66
2022/01/18 00:51:11;;;;;;;21.00;5.38;;;4.40;95.60;;;;;;5013708;28;20495;-67
2022/01/18 00:53:38;;;;;;;19.88;5.13;;;4.40;95.60;;;;;;5016862;28;20375;-66
2022/01/18 00:56:17;;;;;;;20.73;5.22;;;4.40;95.70;;;;;;5013063;28;20038;-66
2022/01/18 00:58:45;;;;;;;22.67;4.55;;;4.40;95.70;;;;;;5015133;28;20564;-66
2022/01/18 01:01:11;;;;;;;22.33;4.82;;;4.40;95.70;;;;;;5019617;28;20054;-67
2022/01/18 01:03:37;;;;;;;16.80;4.50;;;4.30;95.70;;;;;;5033022;28;20025;-65
2022/01/18 01:06:05;;;;;;;16.48;4.80;;;4.30;95.80;;;;;;5027313;28;20045;-66
2022/01/18 01:08:31;;;;;;;29.30;5.25;;;4.40;95.90;;;;;;5031620;28;20025;-66
2022/01/18 01:10:57;;;;;;;13.43;4.10;;;4.30;95.90;;;;;;5031966;28;20029;-66
2022/01/18 01:13:24;;;;;;;20.55;5.15;;;4.30;95.80;;;;;;5026199;28;20050;-66
2022/01/18 01:16:15;;;;;;;23.85;5.18;;;4.30;96.00;;;;;;5018997;28;20079;-66
2022/01/18 01:19:11;;;;;;;24.00;4.97;;;4.20;95.90;;;;;;5032568;28;20144;-66
2022/01/18 01:33:24;;;;;;;16.07;5.17;;;4.10;96.20;;;;;;5023279;28;20079;-66
2022/01/18 01:43:29;;;;;;;19.58;4.90;;;4.00;96.30;;;;;;5029888;28;20087;-66
2022/01/18 01:45:55;;;;;;;21.80;5.50;;;4.00;96.30;;;;;;5032171;28;20428;-66
2022/01/18 01:48:23;;;;;;;19.75;5.47;;;4.00;96.40;;;;;;5021422;28;20026;-66
2022/01/18 01:51:30;;;;;;;17.80;5.18;;;4.00;96.40;;;;;;5011745;28;20156;-66
2022/01/18 01:53:41;;;;;;;24.80;5.68;;;4.00;96.40;;;;;;5029825;28;20030;-66
2022/01/18 01:56:06;;;;;;;21.13;5.55;;;4.00;96.40;;;;;;5030891;28;20036;-66
2022/01/18 01:58:32;;;;;;;14.65;4.72;;;4.00;96.50;;;;;;5012668;28;20022;-66
2022/01/18 02:01:05;;;;;;;19.08;5.38;;;4.00;96.40;;;;;;5027911;28;20057;-66
2022/01/18 02:03:35;;;;;;;19.08;4.43;;;4.00;96.50;;;;;;5029585;28;20021;-67
2022/01/18 02:06:00;;;;;;;23.17;4.72;;;4.00;96.50;;;;;;5023259;28;20060;-67
2022/01/18 02:08:26;;;;;;;19.52;5.88;;;4.00;96.50;;;;;;5021831;28;20411;-66
2022/01/18 02:10:51;;;;;;;23.20;6.15;;;3.90;96.50;;;;;;5029544;28;20029;-66
2022/01/18 02:13:17;;;;;;;19.90;5.55;;;3.90;96.60;;;;;;5029471;28;20116;-66
2022/01/18 02:21:46;;;;;;;16.83;4.75;;;3.90;96.70;;;;;;4993544;28;20034;-66
2022/01/18 02:24:14;;;;;;;22.98;5.40;;;3.90;96.70;;;;;;5024153;28;20038;-66
2022/01/18 02:26:40;;;;;;;19.35;4.97;;;3.90;96.70;;;;;;5020416;28;20034;-66
2022/01/18 02:29:07;;;;;;;24.17;5.30;;;3.90;96.70;;;;;;5019427;28;20120;-66
2022/01/18 02:31:34;;;;;;;15.35;4.97;;;3.90;96.80;;;;;;5027898;28;20025;-66
2022/01/18 02:34:04;;;;;;;21.60;5.10;;;3.90;96.80;;;;;;5028239;28;20105;-66
2022/01/18 02:36:31;;;;;;;17.67;5.30;;;3.90;96.90;;;;;;5024641;28;20033;-66
2022/01/18 02:38:56;;;;;;;23.55;7.50;;;3.90;96.90;;;;;;5028649;28;20033;-67
2022/01/18 02:41:29;;;;;;;26.02;5.55;;;3.90;96.90;;;;;;5029474;28;20029;-66
2022/01/18 02:44:05;;;;;;;19.50;5.30;;;3.90;96.90;;;;;;5031090;28;20037;-66
2022/01/18 02:46:31;;;;;;;24.92;5.57;;;3.90;97.10;;;;;;5028761;28;20056;-66
2022/01/18 02:48:58;;;;;;;21.50;5.13;;;3.90;96.90;;;;;;5029379;28;20037;-66
2022/01/18 02:51:24;;;;;;;21.02;5.47;;;3.90;96.90;;;;;;5029327;28;20053;-67
2022/01/18 02:54:03;;;;;;;25.13;6.13;;;3.90;96.90;;;;;;5043406;28;20508;-66
2022/01/18 02:56:34;;;;;;;18.98;5.80;;;3.90;97.00;;;;;;5029860;28;20029;-67
2022/01/18 02:59:11;;;;;;;17.45;5.05;;;3.90;97.00;;;;;;5030050;28;20053;-67
2022/01/18 03:04:21;;;;;;;20.60;4.63;;;3.90;97.00;;;;;;5030377;28;20047;-68
2022/01/18 03:06:47;;;;;;;24.38;6.53;;;3.90;97.00;;;;;;5029095;28;20375;-67
2022/01/18 03:09:13;;;;;;;28.35;6.35;;;3.80;97.10;;;;;;5030109;28;20540;-67
2022/01/18 03:11:38;;;;;;;15.07;4.70;;;3.80;97.10;;;;;;5014359;28;20041;-67
2022/01/18 03:14:04;;;;;;;24.17;5.05;;;3.80;97.10;;;;;;5027923;28;20029;-67
2022/01/18 03:16:30;;;;;;;26.45;5.30;;;3.80;97.10;;;;;;5027680;28;20032;-67
2022/01/18 03:18:55;;;;;;;18.88;4.93;;;3.80;97.10;;;;;;5029087;28;20025;-67
2022/01/18 03:21:21;;;;;;;25.52;5.45;;;3.80;97.10;;;;;;5022499;28;20504;-67
2022/01/18 03:23:52;;;;;;;22.10;5.82;;;3.80;97.40;;;;;;5030845;28;20021;-68
2022/01/18 03:26:18;;;;;;;22.98;5.10;;;3.80;97.20;;;;;;5029427;28;20038;-67
2022/01/18 03:28:44;;;;;;;27.25;4.70;;;3.80;97.20;;;;;;5029278;28;20036;-69
2022/01/18 03:31:10;;;;;;;25.33;5.95;;;3.80;97.20;;;;;;5022070;28;20025;-67
2022/01/18 03:33:35;;;;;;;18.83;4.53;;;3.80;97.20;;;;;;5028885;28;20048;-68
2022/01/18 03:36:02;;;;;;;23.42;5.90;;;3.80;97.20;;;;;;5020756;28;20397;-67
2022/01/18 03:38:31;;;;;;;17.73;5.00;;;3.80;97.30;;;;;;5019163;28;20373;-67
2022/01/18 03:40:58;;;;;;;20.15;5.63;;;3.80;97.30;;;;;;5020783;28;20037;-67
2022/01/18 03:43:23;;;;;;;18.67;4.97;;;3.80;97.30;;;;;;5020157;28;20041;-67
2022/01/18 03:45:51;;;;;;;21.25;4.88;;;3.80;97.30;;;;;;5016081;28;20433;-67
2022/01/18 03:48:31;;;;;;;20.65;4.68;;;3.80;97.40;;;;;;5027310;28;20029;-67
2022/01/18 03:50:57;;;;;;;26.17;5.13;;;3.70;97.40;;;;;;5017435;28;20536;-67
2022/01/18 03:53:23;;;;;;;17.08;4.70;;;3.80;97.40;;;;;;5010770;28;20034;-67
2022/01/18 03:55:49;;;;;;;16.70;5.03;;;3.80;97.40;;;;;;5017911;28;20501;-67
2022/01/18 03:58:15;;;;;;;18.25;5.18;;;3.80;97.40;;;;;;5011117;28;20076;-67
2022/01/18 04:00:41;;;;;;;21.35;5.22;;;3.80;97.40;;;;;;5017330;28;20050;-67
2022/01/18 04:03:07;;;;;;;30.70;5.85;;;3.80;97.50;;;;;;5027575;28;20061;-67
2022/01/18 04:05:32;;;;;;;22.35;5.07;;;3.70;97.60;;;;;;5032459;28;20546;-67
2022/01/18 04:07:58;;;;;;;24.17;5.10;;;3.70;97.60;;;;;;5033200;28;20156;-67
2022/01/18 04:10:23;;;;;;;19.77;6.03;;;3.70;97.60;;;;;;5019437;28;20029;-67
2022/01/18 04:12:49;;;;;;;19.70;5.15;;;3.70;97.60;;;;;;5014614;28;20022;-67
2022/01/18 04:15:16;;;;;;;21.08;4.20;;;3.70;97.70;;;;;;5021954;28;20095;-67
2022/01/18 04:30:58;;;;;;;19.73;5.05;;;3.70;97.70;;;;;;5032205;28;19909;-67
2022/01/18 04:33:24;;;;;;;19.77;5.45;;;3.70;97.60;;;;;;5029504;28;20029;-67
2022/01/18 04:35:49;;;;;;;15.38;4.40;;;3.70;97.60;;;;;;5032823;28;20036;-67
2022/01/18 04:38:15;;;;;;;18.27;4.88;;;3.70;97.60;;;;;;5021064;28;20064;-67
2022/01/18 04:40:43;;;;;;;17.38;4.85;;;3.70;97.70;;;;;;5021499;28;20067;-68
2022/01/18 04:43:17;;;;;;;16.63;4.57;;;3.70;97.70;;;;;;5033660;28;20422;-68
2022/01/18 04:48:29;;;;;;;17.27;4.60;;;3.70;97.80;;;;;;5028680;28;20392;-67
2022/01/18 04:51:07;;;;;;;16.33;4.60;;;3.70;97.80;;;;;;5031018;28;20120;-67
2022/01/18 04:53:34;;;;;;;17.20;5.40;;;3.80;97.90;;;;;;5033241;28;20557;-67
2022/01/18 04:56:06;;;;;;;21.75;4.82;;;3.80;97.80;;;;;;5030678;28;20505;-68
2022/01/18 04:58:33;;;;;;;19.92;5.88;;;3.90;97.90;;;;;;5024799;28;20358;-67
2022/01/18 05:01:00;;;;;;;23.15;4.65;;;3.90;97.80;;;;;;5016034;28;20072;-68
2022/01/18 05:03:27;;;;;;;21.55;5.45;;;3.90;97.90;;;;;;5018469;28;20040;-67
2022/01/18 05:05:56;;;;;;;21.55;5.32;;;4.00;97.90;;;;;;5031091;28;20040;-67
2022/01/18 05:08:22;;;;;;;22.60;4.25;;;4.10;97.90;;;;;;5027001;28;20034;-67
2022/01/18 05:10:54;;;;;;;20.13;4.65;;;4.10;97.90;;;;;;5020194;28;20039;-68
2022/01/18 05:13:39;;;;;;;18.13;4.68;;;4.10;97.90;;;;;;5025010;28;20109;-67
2022/01/18 05:16:23;;;;;;;20.52;5.10;;;4.20;97.90;;;;;;5023292;28;20559;-67
2022/01/18 05:21:27;;;;;;;19.58;4.95;;;4.20;97.90;;;;;;5023496;28;20298;-67
2022/01/18 05:23:54;;;;;;;19.35;5.10;;;4.30;97.90;;;;;;5032846;28;20523;-67
2022/01/18 05:26:21;;;;;;;20.15;5.03;;;4.30;97.90;;;;;;5023892;28;20125;-67
2022/01/18 05:28:47;;;;;;;17.50;5.20;;;4.40;97.80;;;;;;5022315;28;20040;-67
2022/01/18 05:31:12;;;;;;;19.05;5.00;;;4.40;97.80;;;;;;5030481;28;20645;-67
2022/01/18 05:33:40;;;;;;;22.48;6.00;;;4.40;97.70;;;;;;5032275;28;20400;-68
2022/01/18 05:36:06;;;;;;;22.45;4.60;;;4.40;97.70;;;;;;5025116;28;20025;-66
2022/01/18 05:38:33;;;;;;;23.80;5.38;;;4.40;97.60;;;;;;5021120;28;20538;-66
2022/01/18 05:40:59;;;;;;;25.63;6.15;;;4.40;97.60;;;;;;5013699;28;20038;-66
2022/01/18 05:43:25;;;;;;;17.23;4.30;;;4.40;97.60;;;;;;5012373;28;20116;-66
2022/01/18 05:45:50;;;;;;;16.30;5.85;;;4.40;97.60;;;;;;5016799;28;20770;-66
2022/01/18 05:48:16;;;;;;;12.82;4.05;;;4.40;97.50;;;;;;5028421;28;20157;-66
2022/01/18 05:50:41;;;;;;;16.95;5.93;;;4.40;97.60;;;;;;5030548;28;20043;-66
2022/01/18 05:53:07;;;;;;;15.30;4.68;;;4.40;97.60;;;;;;5019693;28;20462;-66
2022/01/18 05:55:32;;;;;;;18.55;6.25;;;4.40;97.60;;;;;;5014097;28;20037;-67
2022/01/18 05:57:58;;;;;;;16.95;4.20;;;4.50;97.60;;;;;;5014652;28;20145;-66
2022/01/18 06:00:25;;;;;;;16.33;4.72;;;4.50;97.50;;;;;;5030440;28;20424;-67
2022/01/18 06:03:01;;;;;;;22.85;5.68;;;4.50;97.50;;;;;;5022563;28;20038;-67
2022/01/18 06:08:12;;;;;;;22.08;5.22;;;4.50;97.40;;;;;;5011835;28;20030;-66
2022/01/18 06:10:38;;;;;;;21.05;4.93;;;4.50;97.30;;;;;;5011973;28;20040;-66
2022/01/18 06:13:07;;;;;;;15.00;4.65;;;4.50;97.40;;;;;;5012582;28;20071;-66
2022/01/18 06:15:33;;;;;;;16.20;4.80;;;4.40;97.30;;;;;;5012312;28;20033;-66
2022/01/18 06:17:59;;;;;;;18.40;4.15;;;4.40;97.30;;;;;;5020393;28;20034;-66
2022/01/18 06:20:24;;;;;;;19.85;4.78;;;4.40;97.30;;;;;;5029915;28;20036;-66
2022/01/18 06:22:51;;;;;;;19.27;4.38;;;4.40;97.30;;;;;;5030028;28;20014;-67
2022/01/18 06:25:21;;;;;;;24.88;5.40;;;4.40;97.30;;;;;;5025195;28;20375;-66
2022/01/18 06:27:47;;;;;;;17.15;4.07;;;4.40;97.30;;;;;;5028932;28;20017;-66
2022/01/18 06:30:13;;;;;;;15.48;4.25;;;4.40;97.50;;;;;;5018102;28;20512;-67
2022/01/18 06:32:43;;;;;;;17.85;4.53;;;4.40;97.20;;;;;;5029444;28;20064;-66
2022/01/18 06:35:09;;;;;;;14.35;3.97;;;4.30;97.30;;;;;;5012910;28;20041;-66
2022/01/18 06:37:34;;;;;;;21.73;4.82;;;4.40;97.30;;;;;;5026848;28;20522;-66
2022/01/18 06:40:03;;;;;;;18.70;4.25;;;4.30;97.30;;;;;;5030185;28;20113;-66
2022/01/18 06:42:28;;;;;;;15.90;5.00;;;4.30;97.30;;;;;;5031292;28;20075;-66
2022/01/18 06:44:54;;;;;;;12.30;4.68;;;4.30;97.30;;;;;;5026325;28;20021;-67
2022/01/18 06:47:19;;;;;;;20.02;4.68;;;4.30;97.30;;;;;;5024624;28;20029;-67
2022/01/18 06:49:45;;;;;;;19.17;3.90;;;4.30;97.40;;;;;;5029019;28;20092;-66
2022/01/18 06:52:10;;;;;;;17.50;4.78;;;4.30;97.40;;;;;;5016061;28;20026;-66
2022/01/18 06:54:36;;;;;;;18.55;4.03;;;4.30;97.40;;;;;;5011600;28;20084;-65
2022/01/18 06:57:01;;;;;;;16.95;4.68;;;4.30;97.40;;;;;;5021465;28;20079;-66
2022/01/18 06:59:27;;;;;;;18.17;4.57;;;4.30;97.50;;;;;;5011601;28;20378;-66
2022/01/18 07:01:52;;;;;;;17.05;4.85;;;4.30;97.50;;;;;;5015222;28;20141;-65
2022/01/18 07:04:18;;;;;;;20.38;5.10;;;4.30;97.70;;;;;;5023473;28;20086;-65
2022/01/18 07:06:45;;;;;;;19.20;5.63;;;4.30;97.50;;;;;;5027037;28;20128;-64
2022/01/18 07:09:12;;;;;;;19.95;4.55;;;4.30;97.50;;;;;;5017045;28;20067;-66
2022/01/18 07:11:37;;;;;;;19.02;5.18;;;4.30;97.60;;;;;;5024645;28;20038;-64
2022/01/18 07:14:03;;;;;;;17.67;5.65;;;4.30;97.60;;;;;;5022168;28;20499;-65
2022/01/18 07:16:28;;;;;;;20.83;6.13;;;4.30;97.60;;;;;;5021330;28;20037;-64
2022/01/18 07:18:54;;;;;;;18.42;4.63;;;4.40;97.60;;;;;;5011062;28;20425;-64
2022/01/18 07:21:19;;;;;;;19.20;5.63;;;4.40;97.60;;;;;;5022743;28;20076;-64
2022/01/18 07:23:45;;;;;;;20.92;4.32;;;4.40;97.60;;;;;;5009766;28;20034;-64
2022/01/18 07:26:11;;;;;;;19.60;5.35;;;4.50;97.70;;;;;;5027800;28;20049;-65
2022/01/18 07:28:36;;;;;;;18.45;4.63;;;4.50;97.60;;;;;;5029904;28;20026;-65
2022/01/18 07:31:02;;;;;;;15.65;3.90;;;4.50;97.70;;;;;;5027739;28;20029;-65
2022/01/18 07:33:27;;;;;;;18.05;4.25;;;4.60;97.70;;;;;;5015541;28;20510;-65
2022/01/18 07:35:53;;;;;;;24.30;5.93;;;4.60;97.70;;;;;;5026943;28;20033;-65
2022/01/18 07:38:18;;;;;;;17.63;4.50;;;4.70;97.70;;;;;;5030296;28;20021;-65
2022/01/18 07:40:49;;;;;;;18.15;4.05;;;4.80;97.70;;;;;;5025417;28;20038;-65
2022/01/18 07:43:17;;;;;;;14.55;4.57;;;4.80;97.70;;;;;;5029556;28;20021;-65
2022/01/18 07:46:01;;;;;;;17.52;4.40;;;4.80;97.70;;;;;;5022626;28;20477;-65
2022/01/18 07:48:46;;;;;;;14.90;4.05;;;4.90;97.70;;;;;;5014019;28;20107;-65
2022/01/18 07:51:32;;;;;;;14.85;4.75;;;5.00;97.80;;;;;;5016833;28;20064;-65
2022/01/18 07:54:18;;;;;;;14.82;4.47;;;5.00;97.70;;;;;;5027280;28;20033;-65
2022/01/18 07:57:04;;;;;;;14.18;3.97;;;5.10;97.70;;;;;;5024398;28;20400;-65
2022/01/18 07:59:50;;;;;;;19.63;4.43;;;5.10;97.60;;;;;;5014349;28;20107;-65
2022/01/18 08:02:37;;;;;;;15.82;3.70;;;5.20;97.60;;;;;;5027220;28;20053;-65
2022/01/18 08:05:23;;;;;;;17.83;4.63;;;5.30;97.60;;;;;;5022698;28;20130;-65
2022/01/18 08:08:10;;;;;;;13.63;3.83;;;5.30;97.50;;;;;;5023875;28;20026;-65
2022/01/18 08:10:56;;;;;;;14.93;4.03;;;5.40;97.50;;;;;;5027848;28;20037;-64
2022/01/18 08:13:45;;;;;;;15.18;3.97;;;5.40;97.50;;;;;;5022272;28;20034;-64
2022/01/18 08:19:17;;;;;;;17.77;4.90;;;5.60;97.40;;;;;;5029439;28;20146;-65
2022/01/18 08:22:03;;;;;;;42.63;7.30;;;5.60;97.40;;;;;;5017534;28;20131;-64
2022/01/18 08:24:49;;;;;;;98.32;17.13;;;5.70;97.40;;;;;;5029345;28;20132;-64
2022/01/18 08:27:15;;;;;;;58.72;12.27;;;5.70;97.30;;;;;;5030606;28;20116;-65
2022/01/18 08:29:40;;;;;;;137.60;22.10;;;5.80;97.30;;;;;;5022146;28;20021;-65
2022/01/18 08:32:06;;;;;;;515.10;83.80;;;5.80;97.20;;;;;;5028903;28;20026;-65
2022/01/18 08:34:33;;;;;;;207.15;37.47;;;5.90;97.20;;;;;;5015268;28;20120;-65
2022/01/18 08:36:58;;;;;;;106.35;21.10;;;6.00;97.20;;;;;;5027000;28;20029;-66
2022/01/18 08:39:24;;;;;;;157.10;26.15;;;6.10;97.10;;;;;;5028536;28;20079;-66
2022/01/18 08:41:49;;;;;;;80.55;13.55;;;6.10;97.10;;;;;;5023358;28;20026;-66
2022/01/18 08:44:15;;;;;;;82.68;14.30;;;6.20;97.10;;;;;;5022725;28;20096;-66
2022/01/18 08:46:41;;;;;;;54.22;10.77;;;6.20;97.00;;;;;;5023635;28;20079;-65
2022/01/18 08:49:07;;;;;;;1225.88;224.27;;;6.30;97.00;;;;;;5017641;28;20704;-66
2022/01/18 08:51:33;;;;;;;793.75;144.68;;;6.30;96.90;;;;;;5013528;28;20065;-66
2022/01/18 08:53:59;;;;;;;1469.90;276.10;;;6.40;96.70;;;;;;5019184;28;20456;-66
2022/01/18 08:56:25;;;;;;;459.95;78.20;;;6.40;96.70;;;;;;5013788;28;20133;-65
2022/01/18 08:58:51;;;;;;;296.08;46.85;;;6.50;96.80;;;;;;5021882;28;20041;-65
2022/01/18 09:01:16;;;;;;;181.98;26.58;;;6.60;96.70;;;;;;5020938;28;20087;-66
2022/01/18 09:03:42;;;;;;;147.40;21.13;;;6.60;96.60;;;;;;5024216;28;20081;-65
2022/01/18 09:06:12;;;;;;;43.88;7.53;;;6.60;96.60;;;;;;5012579;28;20084;-66
2022/01/18 09:08:40;;;;;;;31.98;7.50;;;6.70;96.50;;;;;;5020221;28;20034;-65
2022/01/18 09:11:06;;;;;;;207.95;29.35;;;6.70;96.40;;;;;;5030171;28;20037;-66
2022/01/18 09:13:34;;;;;;;274.73;41.95;;;6.70;96.30;;;;;;5023741;28;20022;-66
2022/01/18 09:16:00;;;;;;;930.60;168.63;;;6.80;96.40;;;;;;5013351;28;20122;-66
2022/01/18 09:18:25;;;;;;;1999.90;356.90;;;6.80;96.40;;;;;;5026254;28;20388;-66
2022/01/18 09:20:51;;;;;;;278.05;51.80;;;6.90;96.40;;;;;;5029342;28;20036;-66
2022/01/18 09:23:16;;;;;;;104.85;16.60;;;6.90;96.30;;;;;;5028348;28;20030;-66
2022/01/18 09:26:01;;;;;;;;;;;6.90;95.90;;;;;;5025542;28;20064;-66
2022/01/18 09:28:27;;;;;;;151.13;21.80;;;6.90;95.90;;;;;;5020206;28;20699;-65
2022/01/18 09:30:52;;;;;;;1723.95;327.55;;;6.90;95.90;;;;;;5025686;28;20354;-65
2022/01/18 09:33:18;;;;;;;1745.35;299.73;;;7.00;96.00;;;;;;5031490;28;20588;-65
2022/01/18 09:35:44;;;;;;;266.98;47.67;;;7.10;96.10;;;;;;5022349;28;20546;-65
2022/01/18 09:38:09;;;;;;;1257.03;222.15;;;7.10;95.90;;;;;;5023180;28;20018;-66
2022/01/18 09:40:38;;;;;;;533.05;79.68;;;7.20;95.90;;;;;;5023353;28;20029;-65
2022/01/18 09:43:09;;;;;;;727.03;135.65;;;7.30;95.80;;;;;;5019691;28;20028;-65
2022/01/18 09:45:35;;;;;;;307.52;44.90;;;7.20;95.50;;;;;;5023828;28;20504;-65
2022/01/18 09:48:02;;;;;;;169.50;26.73;;;7.30;95.60;;;;;;5020608;28;20030;-65
2022/01/18 09:50:31;;;;;;;365.63;54.40;;;7.40;95.50;;;;;;5013433;28;20041;-65
2022/01/18 09:52:58;;;;;;;200.88;30.98;;;7.30;95.50;;;;;;5018057;28;20029;-65
2022/01/18 09:55:28;;;;;;;263.83;32.92;;;7.40;95.50;;;;;;5028236;28;20034;-65
2022/01/18 09:57:54;;;;;;;58.80;9.10;;;7.40;95.30;;;;;;5023696;28;20406;-65
2022/01/18 10:00:22;;;;;;;37.67;6.97;;;7.50;95.40;;;;;;5015347;28;20100;-65
2022/01/18 10:02:48;;;;;;;35.53;7.30;;;7.40;95.20;;;;;;5029480;28;20036;-66
2022/01/18 10:05:24;;;;;;;809.30;139.18;;;7.50;95.30;;;;;;5029664;28;20025;-66
2022/01/18 10:08:08;;;;;;;1011.70;186.77;;;7.60;95.20;;;;;;5028895;28;20451;-66
2022/01/18 10:10:41;;;;;;;1034.43;183.43;;;7.60;95.20;;;;;;5030561;28;20036;-65
2022/01/18 10:13:08;;;;;;;1228.82;252.15;;;7.60;95.10;;;;;;5023499;28;20433;-67
2022/01/18 10:15:34;;;;;;;243.38;44.55;;;7.60;95.20;;;;;;5024063;28;20114;-66
2022/01/18 10:18:05;;;;;;;92.28;17.05;;;7.70;94.90;;;;;;5015375;28;20029;-66
2022/01/18 10:20:31;;;;;;;53.47;10.18;;;7.70;94.90;;;;;;5026901;28;20504;-66
2022/01/18 10:22:56;;;;;;;63.97;10.18;;;7.70;95.00;;;;;;5026909;28;20056;-66
2022/01/18 10:25:25;;;;;;;92.78;14.98;;;7.70;94.80;;;;;;5026422;28;20026;-65
2022/01/18 10:27:55;;;;;;;23.35;5.47;;;7.80;94.90;;;;;;5014752;28;20021;-65
2022/01/18 10:30:44;;;;;;;20.10;4.97;;;7.80;94.80;;;;;;5015690;28;20061;-65
2022/01/18 10:33:17;;;;;;;38.90;6.25;;;7.90;94.80;;;;;;5011164;28;20449;-65
2022/01/18 10:36:12;;;;;;;807.83;138.20;;;8.00;94.70;;;;;;5010592;28;20022;-66
2022/01/18 10:38:40;;;;;;;489.60;80.35;;;8.00;94.60;;;;;;5012014;28;20431;-66
2022/01/18 10:41:28;;;;;;;150.18;22.45;;;8.00;94.60;;;;;;5020414;28;20040;-66
2022/01/18 10:44:13;;;;;;;172.15;29.73;;;8.10;94.50;;;;;;5031615;28;20476;-66
2022/01/18 10:46:54;;;;;;;996.88;189.27;;;8.00;94.20;;;;;;5013398;28;20152;-65
2022/01/18 10:49:25;;;;;;;1200.53;226.50;;;8.00;94.40;;;;;;5025467;28;20507;-65
2022/01/18 10:51:57;;;;;;;701.38;119.88;;;8.00;94.40;;;;;;5024462;28;20037;-66
2022/01/18 10:54:43;;;;;;;179.63;28.48;;;8.00;94.20;;;;;;5010312;28;20473;-66
2022/01/18 10:57:12;;;;;;;35.88;7.72;;;8.10;94.20;;;;;;5016081;28;20060;-68
2022/01/18 10:59:38;;;;;;;26.42;6.20;;;8.00;93.80;;;;;;5016512;28;20560;-64
2022/01/18 11:02:18;;;;;;;40.78;9.00;;;7.90;93.90;;;;;;5021767;28;20485;-66
2022/01/18 11:04:47;;;;;;;32.88;6.15;;;8.00;94.10;;;;;;5017525;28;20527;-65
2022/01/18 11:07:14;;;;;;;26.38;5.45;;;8.10;94.10;;;;;;5027177;28;20059;-66
2022/01/18 11:09:40;;;;;;;13.10;4.18;;;8.10;94.00;;;;;;5029852;28;20389;-67
2022/01/18 11:12:07;;;;;;;17.35;3.90;;;8.10;93.40;;;;;;5015479;28;20030;-65
2022/01/18 11:14:36;;;;;;;16.98;5.00;;;8.00;93.60;;;;;;5033600;28;20014;-66
2022/01/18 11:17:03;;;;;;;15.85;3.92;;;8.00;93.90;;;;;;5031147;28;20087;-66
2022/01/18 11:19:32;;;;;;;16.55;3.78;;;8.10;93.90;;;;;;5031528;28;20057;-67
2022/01/18 11:22:00;;;;;;;15.20;4.22;;;8.10;93.80;;;;;;5031543;28;20026;-66
2022/01/18 11:24:28;;;;;;;9.63;3.28;;;8.10;93.80;;;;;;5028652;28;20026;-66
2022/01/18 11:26:54;;;;;;;15.43;3.85;;;8.10;93.70;;;;;;5024043;28;20038;-66
2022/01/18 11:29:21;;;;;;;9.15;3.40;;;8.00;93.50;;;;;;5034958;28;20033;-66
2022/01/18 11:31:52;;;;;;;13.25;3.58;;;8.10;93.70;;;;;;5029223;28;20030;-66
2022/01/18 11:34:36;;;;;;;11.88;3.40;;;8.10;93.60;;;;;;5033336;28;20022;-67
2022/01/18 11:37:27;;;;;;;15.52;4.18;;;8.00;93.60;;;;;;5026643;28;20477;-66
2022/01/18 11:40:05;;;;;;;169.95;25.27;;;8.10;93.50;;;;;;5008554;28;20034;-66
2022/01/18 11:42:38;;;;;;;171.75;30.58;;;8.10;93.50;;;;;;5022110;28;20068;-66
2022/01/18 11:45:34;;;;;;;65.90;12.80;;;8.00;93.20;;;;;;5032006;28;20072;-65
2022/01/18 11:48:06;;;;;;;814.63;139.82;;;8.00;93.40;;;;;;5024163;28;20769;-66
2022/01/18 11:50:40;;;;;;;1993.47;410.20;;;7.90;93.30;;;;;;5031328;28;20040;-65
2022/01/18 11:53:22;;;;;;;675.67;129.63;;;8.10;93.60;;;;;;5033781;28;20030;-66
2022/01/18 11:55:48;;;;;;;156.48;25.95;;;8.10;93.40;;;;;;5032478;28;20041;-66
2022/01/18 11:58:14;;;;;;;145.60;24.45;;;8.10;93.50;;;;;;5028837;28;20034;-66
2022/01/18 12:00:52;;;;;;;35.10;5.78;;;8.10;93.40;;;;;;5021230;28;20046;-65
2022/01/18 12:03:20;;;;;;;24.42;6.50;;;8.10;93.30;;;;;;5028937;28;20038;-65
2022/01/18 12:05:46;;;;;;;29.63;5.47;;;8.00;93.10;;;;;;5030585;28;20053;-66
2022/01/18 12:08:32;;;;;;;13.70;2.97;;;8.00;93.10;;;;;;5032598;28;20029;-66
2022/01/18 12:10:59;;;;;;;8.88;3.25;;;8.10;93.10;;;;;;5025922;28;20038;-66
2022/01/18 12:13:28;;;;;;;11.38;2.67;;;8.10;93.00;;;;;;5033665;28;20075;-66
2022/01/18 12:15:57;;;;;;;12.23;2.88;;;8.10;92.90;;;;;;5026522;28;20478;-66
2022/01/18 12:18:29;;;;;;;7.88;3.03;;;8.10;93.00;;;;;;5031365;28;20116;-66
2022/01/18 12:21:12;;;;;;;63.85;10.27;;;8.20;93.00;;;;;;5019227;28;20037;-66
2022/01/18 12:23:42;;;;;;;253.70;39.65;;;8.20;92.90;;;;;;5024341;28;20029;-66
2022/01/18 12:28:45;;;;;;;132.98;21.63;;;8.20;93.00;;;;;;5013611;28;20480;-66
2022/01/18 12:31:52;;;;;;;40.58;8.27;;;8.30;93.10;;;;;;5015707;28;20060;-66
2022/01/18 12:34:40;;;;;;;58.20;9.52;;;8.30;93.20;;;;;;5020984;28;20041;-66
2022/01/18 12:37:17;;;;;;;36.30;6.85;;;8.40;93.10;;;;;;5027766;28;20061;-66
2022/01/18 12:45:10;;;;;;;10.32;2.75;;;8.60;92.80;;;;;;5019707;28;20037;-66
2022/01/18 12:47:40;;;;;;;12.70;3.40;;;8.60;92.70;;;;;;5030979;28;20029;-66
2022/01/18 12:50:09;;;;;;;130.57;21.35;;;8.60;92.80;;;;;;5032692;28;20473;-66
2022/01/18 12:52:52;;;;;;;605.78;108.15;;;8.60;92.60;;;;;;5033150;28;20051;-66
2022/01/18 12:55:47;;;;;;;1525.63;280.95;;;8.50;92.40;;;;;;5032395;28;20056;-65
2022/01/18 12:58:15;;;;;;;727.10;118.05;;;8.60;92.50;;;;;;5032505;28;20037;-65
2022/01/18 13:00:42;;;;;;;1115.05;204.50;;;8.60;92.40;;;;;;5020930;28;20045;-65
2022/01/18 13:03:08;;;;;;;1999.90;399.10;;;8.60;92.40;;;;;;5026393;28;20017;-66
2022/01/18 13:05:42;;;;;;;833.67;145.95;;;8.70;92.40;;;;;;5035685;28;20096;-65
2022/01/18 13:08:09;;;;;;;196.25;30.13;;;8.70;92.40;;;;;;5032278;28;20079;-65
2022/01/18 13:10:38;;;;;;;25.98;4.60;;;8.80;92.50;;;;;;5017939;28;20037;-65
2022/01/18 13:13:06;;;;;;;36.15;5.80;;;8.80;92.30;;;;;;5031779;28;20481;-66
2022/01/18 13:27:03;;;;;;;787.75;128.98;;;8.80;92.10;;;;;;5019842;28;20088;-66
2022/01/18 13:29:30;;;;;;;865.40;158.23;;;8.90;92.20;;;;;;5024387;28;20117;-66
2022/01/18 13:32:05;;;;;;;261.23;42.05;;;8.90;92.30;;;;;;5021130;28;20058;-65
2022/01/18 13:34:36;;;;;;;58.60;10.88;;;9.00;92.20;;;;;;5022208;28;20152;-65
2022/01/18 13:37:04;;;;;;;37.58;7.22;;;9.00;92.20;;;;;;5029465;28;20476;-65
2022/01/18 13:39:48;;;;;;;11.93;3.92;;;9.00;92.40;;;;;;5027444;28;20034;-66
2022/01/18 13:42:26;;;;;;;12.82;4.00;;;9.00;92.20;;;;;;5029927;28;20366;-65
2022/01/18 13:45:13;;;;;;;15.13;3.65;;;9.00;92.20;;;;;;5029939;28;20029;-65
2022/01/18 13:47:42;;;;;;;16.50;3.25;;;9.10;92.40;;;;;;5026245;28;20613;-66
2022/01/18 13:50:32;;;;;;;339.90;49.45;;;9.10;92.40;;;;;;5023889;28;20099;-66
2022/01/18 13:53:07;;;;;;;1445.57;254.73;;;9.10;92.40;;;;;;5030850;28;20087;-65
2022/01/18 13:55:34;;;;;;;;;;;9.10;92.30;;;;;;5029883;28;20041;-64
2022/01/18 13:58:04;;;;;;;758.40;133.80;;;9.20;92.20;;;;;;5028407;28;19909;-65
2022/01/18 14:00:31;;;;;;;810.40;141.48;;;9.10;92.30;;;;;;5028296;28;20056;-65
2022/01/18 14:02:56;;;;;;;375.20;55.45;;;9.00;92.30;;;;;;5025439;28;20436;-65
2022/01/18 14:05:24;;;;;;;35.88;8.05;;;9.00;92.40;;;;;;5024347;28;20069;-65
2022/01/18 14:08:07;;;;;;;34.33;5.20;;;9.00;92.30;;;;;;5030162;28;20051;-66
2022/01/18 14:10:33;;;;;;;49.38;7.78;;;8.80;91.90;;;;;;5019909;28;20037;-66
2022/01/18 14:12:58;;;;;;;16.48;4.32;;;8.70;92.30;;;;;;5029399;28;20103;-66
2022/01/18 14:15:42;;;;;;;19.73;4.47;;;8.70;92.40;;;;;;5029322;28;20044;-66